sensor_id;sensor_type;location;lat;lon;timestamp;pressure;altitude;pressure_sealevel;temperature;humidity
11198;BME280;5655;48.744;9.162;2023-04-27T00:00:03;96224.09;;;11.28;100.00
11198;BME280;5655;48.744;9.162;2023-04-27T00:02:32;96219.88;;;10.86;100.00
11198;BME280;5655;48.744;9.162;2023-04-27T00:04:57;96211.47;;;10.88;100.00
11198;BME280;5655;48.744;9.162;2023-04-27T00:07:22;96219.63;;;10.99;100.00
11198;BME280;5655;48.744;9.162;2023-04-27T00:09:48;96212.63;;;11.31;100.00
11198;BME280;5655;48.744;9.162;2023-04-27T00:12:13;96207.00;;;10.99;100.00
11198;BME280;5655;48.744;9.162;2023-04-27T00:14:39;96209.69;;;10.99;100.00
11198;BME280;5655;48.744;9.162;2023-04-27T00:17:04;96206.84;;;10.85;100.00
11198;BME280;5655;48.744;9.162;2023-04-27T00:19:29;96210.78;;;10.95;100.00
11198;BME280;5655;48.744;9.162;2023-04-27T00:21:55;96200.44;;;10.97;100.00
11198;BME280;5655;48.744;9.162;2023-04-27T00:24:22;96202.31;;;10.92;100.00
11198;BME280;5655;48.744;9.162;2023-04-27T00:26:47;96198.44;;;11.30;100.00
11198;BME280;5655;48.744;9.162;2023-04-27T00:29:12;96197.75;;;10.93;100.00
11198;BME280;5655;48.744;9.162;2023-04-27T00:31:38;96202.81;;;11.05;100.00
11198;BME280;5655;48.744;9.162;2023-04-27T00:34:03;96203.63;;;11.09;100.00
11198;BME280;5655;48.744;9.162;2023-04-27T00:36:29;96199.47;;;11.15;100.00
11198;BME280;5655;48.744;9.162;2023-04-27T00:38:54;96193.69;;;11.10;100.00
11198;BME280;5655;48.744;9.162;2023-04-27T00:41:19;96195.94;;;11.04;100.00
11198;BME280;5655;48.744;9.162;2023-04-27T00:43:45;96191.25;;;10.94;100.00
11198;BME280;5655;48.744;9.162;2023-04-27T00:46:12;96182.91;;;10.99;100.00
11198;BME280;5655;48.744;9.162;2023-04-27T00:48:37;96179.59;;;10.76;100.00
11198;BME280;5655;48.744;9.162;2023-04-27T00:51:04;96187.84;;;10.97;100.00
11198;BME280;5655;48.744;9.162;2023-04-27T00:53:30;96177.69;;;11.17;100.00
11198;BME280;5655;48.744;9.162;2023-04-27T00:55:55;96183.81;;;11.17;100.00
11198;BME280;5655;48.744;9.162;2023-04-27T00:58:22;96185.81;;;11.27;100.00
11198;BME280;5655;48.744;9.162;2023-04-27T01:00:48;96183.91;;;11.28;100.00
11198;BME280;5655;48.744;9.162;2023-04-27T01:03:13;96181.53;;;11.19;100.00
11198;BME280;5655;48.744;9.162;2023-04-27T01:05:39;96187.69;;;11.23;100.00
11198;BME280;5655;48.744;9.162;2023-04-27T01:08:05;96179.38;;;10.91;100.00
11198;BME280;5655;48.744;9.162;2023-04-27T01:10:31;96183.78;;;10.70;100.00
11198;BME280;5655;48.744;9.162;2023-04-27T01:12:56;96188.84;;;10.82;100.00
11198;BME280;5655;48.744;9.162;2023-04-27T01:15:22;96186.53;;;10.80;100.00
11198;BME280;5655;48.744;9.162;2023-04-27T01:17:47;96190.22;;;10.65;100.00
11198;BME280;5655;48.744;9.162;2023-04-27T01:20:13;96186.19;;;10.48;100.00
11198;BME280;5655;48.744;9.162;2023-04-27T01:22:39;96192.94;;;10.35;100.00
11198;BME280;5655;48.744;9.162;2023-04-27T01:25:05;96191.03;;;10.69;100.00
11198;BME280;5655;48.744;9.162;2023-04-27T01:27:32;96197.06;;;10.63;100.00
11198;BME280;5655;48.744;9.162;2023-04-27T01:29:57;96197.63;;;10.45;100.00
11198;BME280;5655;48.744;9.162;2023-04-27T01:32:22;96193.78;;;10.43;100.00
11198;BME280;5655;48.744;9.162;2023-04-27T01:34:48;96186.63;;;10.51;100.00
11198;BME280;5655;48.744;9.162;2023-04-27T01:37:13;96189.94;;;10.74;100.00
11198;BME280;5655;48.744;9.162;2023-04-27T01:39:39;96186.19;;;10.48;100.00
11198;BME280;5655;48.744;9.162;2023-04-27T01:42:05;96191.09;;;10.39;100.00
11198;BME280;5655;48.744;9.162;2023-04-27T01:44:30;96180.03;;;10.44;100.00
11198;BME280;5655;48.744;9.162;2023-04-27T01:46:56;96178.69;;;10.28;100.00
11198;BME280;5655;48.744;9.162;2023-04-27T01:49:21;96188.88;;;10.15;100.00
11198;BME280;5655;48.744;9.162;2023-04-27T01:51:46;96188.06;;;10.15;100.00
11198;BME280;5655;48.744;9.162;2023-04-27T01:54:12;96191.13;;;10.13;100.00
11198;BME280;5655;48.744;9.162;2023-04-27T01:56:37;96193.19;;;9.97;100.00
11198;BME280;5655;48.744;9.162;2023-04-27T01:59:02;96185.66;;;10.06;100.00
11198;BME280;5655;48.744;9.162;2023-04-27T02:01:27;96191.97;;;10.17;100.00
11198;BME280;5655;48.744;9.162;2023-04-27T02:03:53;96197.00;;;9.96;100.00
11198;BME280;5655;48.744;9.162;2023-04-27T02:06:18;96192.44;;;9.96;100.00
11198;BME280;5655;48.744;9.162;2023-04-27T02:08:43;96187.78;;;9.93;100.00
11198;BME280;5655;48.744;9.162;2023-04-27T02:11:09;96196.16;;;10.18;100.00
11198;BME280;5655;48.744;9.162;2023-04-27T02:13:34;96201.13;;;10.16;100.00
11198;BME280;5655;48.744;9.162;2023-04-27T02:16:00;96202.53;;;10.10;100.00
11198;BME280;5655;48.744;9.162;2023-04-27T02:18:27;96195.13;;;10.26;100.00
11198;BME280;5655;48.744;9.162;2023-04-27T02:20:52;96205.44;;;9.72;100.00
11198;BME280;5655;48.744;9.162;2023-04-27T02:23:18;96205.44;;;9.72;100.00
11198;BME280;5655;48.744;9.162;2023-04-27T02:25:43;96203.06;;;9.93;100.00
11198;BME280;5655;48.744;9.162;2023-04-27T02:28:11;96207.88;;;10.10;100.00
11198;BME280;5655;48.744;9.162;2023-04-27T02:30:37;96208.00;;;10.17;100.00
11198;BME280;5655;48.744;9.162;2023-04-27T02:33:03;96203.56;;;10.02;100.00
11198;BME280;5655;48.744;9.162;2023-04-27T02:35:29;96211.50;;;9.95;100.00
11198;BME280;5655;48.744;9.162;2023-04-27T02:37:56;96203.06;;;9.93;100.00
11198;BME280;5655;48.744;9.162;2023-04-27T02:40:22;96208.16;;;9.75;100.00
11198;BME280;5655;48.744;9.162;2023-04-27T02:42:47;96210.91;;;9.79;100.00
11198;BME280;5655;48.744;9.162;2023-04-27T02:45:12;96216.75;;;9.88;100.00
11198;BME280;5655;48.744;9.162;2023-04-27T02:47:37;96216.25;;;9.79;100.00
11198;BME280;5655;48.744;9.162;2023-04-27T02:50:03;96216.81;;;9.91;100.00
11198;BME280;5655;48.744;9.162;2023-04-27T02:52:28;96212.84;;;9.82;100.00
11198;BME280;5655;48.744;9.162;2023-04-27T02:54:54;96217.06;;;10.09;100.00
11198;BME280;5655;48.744;9.162;2023-04-27T02:57:19;96213.44;;;10.24;100.00
11198;BME280;5655;48.744;9.162;2023-04-27T02:59:44;96217.97;;;10.20;100.00
11198;BME280;5655;48.744;9.162;2023-04-27T03:02:10;96220.66;;;10.20;100.00
11198;BME280;5655;48.744;9.162;2023-04-27T03:04:35;96214.75;;;10.37;100.00
11198;BME280;5655;48.744;9.162;2023-04-27T03:07:02;96208.44;;;10.53;100.00
11198;BME280;5655;48.744;9.162;2023-04-27T03:09:27;96214.53;;;10.20;100.00
11198;BME280;5655;48.744;9.162;2023-04-27T03:11:52;96211.50;;;10.21;100.00
11198;BME280;5655;48.744;9.162;2023-04-27T03:14:18;96216.09;;;10.24;100.00
11198;BME280;5655;48.744;9.162;2023-04-27T03:16:43;96211.19;;;10.26;100.00
11198;BME280;5655;48.744;9.162;2023-04-27T03:19:08;96208.50;;;10.26;100.00
11198;BME280;5655;48.744;9.162;2023-04-27T03:21:34;96212.88;;;10.12;100.00
11198;BME280;5655;48.744;9.162;2023-04-27T03:24:00;96203.34;;;10.14;100.00
11198;BME280;5655;48.744;9.162;2023-04-27T03:26:25;96207.53;;;10.41;100.00
11198;BME280;5655;48.744;9.162;2023-04-27T03:28:50;96217.19;;;10.50;100.00
11198;BME280;5655;48.744;9.162;2023-04-27T03:31:16;96220.28;;;10.52;100.00
11198;BME280;5655;48.744;9.162;2023-04-27T03:33:41;96215.88;;;10.36;100.00
11198;BME280;5655;48.744;9.162;2023-04-27T03:36:07;96205.41;;;10.24;100.00
11198;BME280;5655;48.744;9.162;2023-04-27T03:38:33;96217.66;;;10.25;100.00
11198;BME280;5655;48.744;9.162;2023-04-27T03:40:59;96214.03;;;10.14;100.00
11198;BME280;5655;48.744;9.162;2023-04-27T03:43:25;96213.22;;;10.10;100.00
11198;BME280;5655;48.744;9.162;2023-04-27T03:45:51;96217.44;;;10.11;100.00
11198;BME280;5655;48.744;9.162;2023-04-27T03:48:16;96213.56;;;10.05;100.00
11198;BME280;5655;48.744;9.162;2023-04-27T03:50:43;96217.97;;;10.20;100.00
11198;BME280;5655;48.744;9.162;2023-04-27T03:53:09;96220.69;;;10.24;100.00
11198;BME280;5655;48.744;9.162;2023-04-27T03:55:39;96216.56;;;10.30;100.00
11198;BME280;5655;48.744;9.162;2023-04-27T03:58:05;96221.16;;;10.03;100.00
11198;BME280;5655;48.744;9.162;2023-04-27T04:00:31;96220.84;;;10.08;100.00
11198;BME280;5655;48.744;9.162;2023-04-27T04:02:57;96211.50;;;9.95;100.00
11198;BME280;5655;48.744;9.162;2023-04-27T04:05:22;96232.47;;;9.93;100.00
11198;BME280;5655;48.744;9.162;2023-04-27T04:07:48;96216.94;;;9.76;100.00
11198;BME280;5655;48.744;9.162;2023-04-27T04:10:13;96218.59;;;9.84;100.00
11198;BME280;5655;48.744;9.162;2023-04-27T04:12:38;96225.19;;;9.90;100.00
11198;BME280;5655;48.744;9.162;2023-04-27T04:15:04;96226.00;;;9.94;100.00
11198;BME280;5655;48.744;9.162;2023-04-27T04:17:29;96227.91;;;9.93;100.00
11198;BME280;5655;48.744;9.162;2023-04-27T04:19:55;96223.75;;;9.96;100.00
11198;BME280;5655;48.744;9.162;2023-04-27T04:22:20;96226.00;;;9.94;100.00
11198;BME280;5655;48.744;9.162;2023-04-27T04:24:45;96220.44;;;9.80;100.00
11198;BME280;5655;48.744;9.162;2023-04-27T04:27:11;96215.81;;;9.77;100.00
11198;BME280;5655;48.744;9.162;2023-04-27T04:29:37;96223.31;;;9.68;100.00
11198;BME280;5655;48.744;9.162;2023-04-27T04:32:03;96228.66;;;9.68;100.00
11198;BME280;5655;48.744;9.162;2023-04-27T04:34:28;96227.63;;;9.76;100.00
11198;BME280;5655;48.744;9.162;2023-04-27T04:36:54;96232.06;;;9.65;100.00
11198;BME280;5655;48.744;9.162;2023-04-27T04:39:21;96232.59;;;9.74;100.00
11198;BME280;5655;48.744;9.162;2023-04-27T04:41:47;96232.69;;;9.81;100.00
11198;BME280;5655;48.744;9.162;2023-04-27T04:44:15;96238.06;;;9.58;100.00
11198;BME280;5655;48.744;9.162;2023-04-27T04:46:41;96238.16;;;9.62;100.00
11198;BME280;5655;48.744;9.162;2023-04-27T04:49:07;96239.78;;;9.70;100.00
11198;BME280;5655;48.744;9.162;2023-04-27T04:51:32;96238.84;;;9.85;100.00
11198;BME280;5655;48.744;9.162;2023-04-27T04:53:58;96241.78;;;9.76;100.00
11198;BME280;5655;48.744;9.162;2023-04-27T04:56:23;96232.16;;;9.72;100.00
11198;BME280;5655;48.744;9.162;2023-04-27T04:58:48;96235.25;;;9.47;100.00
11198;BME280;5655;48.744;9.162;2023-04-27T05:01:14;96231.31;;;9.41;100.00
11198;BME280;5655;48.744;9.162;2023-04-27T05:03:39;96232.97;;;9.49;100.00
11198;BME280;5655;48.744;9.162;2023-04-27T05:06:05;96237.50;;;9.45;100.00
11198;BME280;5655;48.744;9.162;2023-04-27T05:08:30;96237.38;;;9.38;100.00
11198;BME280;5655;48.744;9.162;2023-04-27T05:10:56;96239.09;;;9.50;100.00
11198;BME280;5655;48.744;9.162;2023-04-27T05:13:21;96235.19;;;9.44;100.00
11198;BME280;5655;48.744;9.162;2023-04-27T05:15:48;96233.69;;;9.46;100.00
11198;BME280;5655;48.744;9.162;2023-04-27T05:18:14;96231.03;;;9.46;100.00
11198;BME280;5655;48.744;9.162;2023-04-27T05:20:39;96231.50;;;9.52;100.00
11198;BME280;5655;48.744;9.162;2023-04-27T05:23:04;96231.69;;;9.40;100.00
11198;BME280;5655;48.744;9.162;2023-04-27T05:25:31;96237.16;;;9.73;100.00
11198;BME280;5655;48.744;9.162;2023-04-27T05:27:57;96232.84;;;9.65;100.00
11198;BME280;5655;48.744;9.162;2023-04-27T05:30:22;96234.81;;;9.45;100.00
11198;BME280;5655;48.744;9.162;2023-04-27T05:32:48;96240.25;;;9.26;100.00
11198;BME280;5655;48.744;9.162;2023-04-27T05:35:13;96237.56;;;9.49;100.00
11198;BME280;5655;48.744;9.162;2023-04-27T05:37:38;96238.78;;;9.55;100.00
11198;BME280;5655;48.744;9.162;2023-04-27T05:40:04;96241.63;;;9.66;100.00
11198;BME280;5655;48.744;9.162;2023-04-27T05:42:31;96246.97;;;9.66;100.00
11198;BME280;5655;48.744;9.162;2023-04-27T05:44:56;96243.78;;;9.56;100.00
11198;BME280;5655;48.744;9.162;2023-04-27T05:47:22;96255.34;;;9.64;100.00
11198;BME280;5655;48.744;9.162;2023-04-27T05:49:53;96250.66;;;10.10;100.00
11198;BME280;5655;48.744;9.162;2023-04-27T05:52:19;96256.06;;;10.14;100.00
11198;BME280;5655;48.744;9.162;2023-04-27T05:54:48;96252.50;;;10.32;100.00
11198;BME280;5655;48.744;9.162;2023-04-27T05:57:15;96256.53;;;9.93;100.00
11198;BME280;5655;48.744;9.162;2023-04-27T05:59:41;96257.53;;;10.37;100.00
11198;BME280;5655;48.744;9.162;2023-04-27T06:02:07;96264.03;;;10.36;100.00
11198;BME280;5655;48.744;9.162;2023-04-27T06:04:32;96257.03;;;10.28;100.00
11198;BME280;5655;48.744;9.162;2023-04-27T06:06:58;96261.84;;;10.45;100.00
11198;BME280;5655;48.744;9.162;2023-04-27T06:09:24;96258.13;;;10.54;100.00
11198;BME280;5655;48.744;9.162;2023-04-27T06:11:49;96270.78;;;10.27;100.00
11198;BME280;5655;48.744;9.162;2023-04-27T06:14:15;96266.69;;;10.66;100.00
11198;BME280;5655;48.744;9.162;2023-04-27T06:16:40;96267.09;;;10.35;100.00
11198;BME280;5655;48.744;9.162;2023-04-27T06:19:06;96266.66;;;10.63;100.00
11198;BME280;5655;48.744;9.162;2023-04-27T06:21:32;96270.38;;;10.88;100.00
11198;BME280;5655;48.744;9.162;2023-04-27T06:23:57;96272.94;;;10.77;100.00
11198;BME280;5655;48.744;9.162;2023-04-27T06:26:23;96270.41;;;10.58;100.00
11198;BME280;5655;48.744;9.162;2023-04-27T06:28:48;96280.56;;;10.75;100.00
11198;BME280;5655;48.744;9.162;2023-04-27T06:31:13;96284.22;;;10.93;100.00
11198;BME280;5655;48.744;9.162;2023-04-27T06:33:39;96291.38;;;11.19;100.00
11198;BME280;5655;48.744;9.162;2023-04-27T06:36:04;96296.66;;;11.53;100.00
11198;BME280;5655;48.744;9.162;2023-04-27T06:38:30;96298.03;;;11.36;100.00
11198;BME280;5655;48.744;9.162;2023-04-27T06:40:55;96294.41;;;11.58;100.00
11198;BME280;5655;48.744;9.162;2023-04-27T06:43:21;96298.19;;;11.54;100.00
11198;BME280;5655;48.744;9.162;2023-04-27T06:45:47;96298.75;;;11.29;100.00
11198;BME280;5655;48.744;9.162;2023-04-27T06:48:12;96301.34;;;11.63;100.00
11198;BME280;5655;48.744;9.162;2023-04-27T06:50:37;96301.94;;;11.86;100.00
11198;BME280;5655;48.744;9.162;2023-04-27T06:53:03;96301.00;;;11.68;100.00
11198;BME280;5655;48.744;9.162;2023-04-27T06:55:28;96301.53;;;11.84;100.00
11198;BME280;5655;48.744;9.162;2023-04-27T06:57:53;96300.63;;;11.69;100.00
11198;BME280;5655;48.744;9.162;2023-04-27T07:00:19;96312.78;;;12.04;100.00
11198;BME280;5655;48.744;9.162;2023-04-27T07:02:44;96310.00;;;11.90;100.00
11198;BME280;5655;48.744;9.162;2023-04-27T07:05:09;96313.94;;;12.03;100.00
11198;BME280;5655;48.744;9.162;2023-04-27T07:07:35;96308.75;;;11.73;100.00
11198;BME280;5655;48.744;9.162;2023-04-27T07:10:00;96305.06;;;11.95;100.00
11198;BME280;5655;48.744;9.162;2023-04-27T07:12:26;96302.16;;;11.70;100.00
11198;BME280;5655;48.744;9.162;2023-04-27T07:14:51;96304.59;;;12.37;100.00
11198;BME280;5655;48.744;9.162;2023-04-27T07:17:16;96303.47;;;12.42;100.00
11198;BME280;5655;48.744;9.162;2023-04-27T07:19:41;96307.31;;;12.51;100.00
11198;BME280;5655;48.744;9.162;2023-04-27T07:22:07;96308.22;;;12.77;100.00
11198;BME280;5655;48.744;9.162;2023-04-27T07:24:32;96311.25;;;12.68;100.00
11198;BME280;5655;48.744;9.162;2023-04-27T07:26:57;96310.56;;;12.85;100.00
11198;BME280;5655;48.744;9.162;2023-04-27T07:29:23;96308.63;;;12.82;100.00
11198;BME280;5655;48.744;9.162;2023-04-27T07:31:52;96305.63;;;13.08;100.00
11198;BME280;5655;48.744;9.162;2023-04-27T07:34:17;96308.94;;;12.70;100.00
11198;BME280;5655;48.744;9.162;2023-04-27T07:36:43;96301.78;;;13.02;100.00
11198;BME280;5655;48.744;9.162;2023-04-27T07:39:09;96306.09;;;13.17;100.00
11198;BME280;5655;48.744;9.162;2023-04-27T07:41:35;96304.16;;;13.14;100.00
11198;BME280;5655;48.744;9.162;2023-04-27T07:44:00;96300.72;;;13.21;100.00
11198;BME280;5655;48.744;9.162;2023-04-27T07:46:26;96303.44;;;13.28;100.00
11198;BME280;5655;48.744;9.162;2023-04-27T07:48:51;96309.22;;;13.41;100.00
11198;BME280;5655;48.744;9.162;2023-04-27T07:51:19;96309.22;;;13.41;100.00
11198;BME280;5655;48.744;9.162;2023-04-27T07:53:45;96306.91;;;13.50;100.00
11198;BME280;5655;48.744;9.162;2023-04-27T07:56:10;96300.41;;;13.76;100.00
11198;BME280;5655;48.744;9.162;2023-04-27T07:58:36;96301.19;;;13.76;100.00
11198;BME280;5655;48.744;9.162;2023-04-27T08:01:02;96303.84;;;13.62;100.00
11198;BME280;5655;48.744;9.162;2023-04-27T08:03:27;96304.63;;;13.87;100.00
11198;BME280;5655;48.744;9.162;2023-04-27T08:05:53;96301.53;;;13.85;100.00
11198;BME280;5655;48.744;9.162;2023-04-27T08:08:18;96301.53;;;14.14;100.00
11198;BME280;5655;48.744;9.162;2023-04-27T08:10:43;96299.63;;;13.96;100.00
11198;BME280;5655;48.744;9.162;2023-04-27T08:13:08;96301.50;;;14.21;100.00
11198;BME280;5655;48.744;9.162;2023-04-27T08:15:35;96294.94;;;14.50;100.00
11198;BME280;5655;48.744;9.162;2023-04-27T08:18:00;96300.75;;;14.24;100.00
11198;BME280;5655;48.744;9.162;2023-04-27T08:20:26;96301.91;;;14.44;100.00
11198;BME280;5655;48.744;9.162;2023-04-27T08:22:51;96289.59;;;14.36;100.00
11198;BME280;5655;48.744;9.162;2023-04-27T08:25:17;96286.88;;;14.53;100.00
11198;BME280;5655;48.744;9.162;2023-04-27T08:27:42;96286.81;;;14.64;100.00
11198;BME280;5655;48.744;9.162;2023-04-27T08:30:08;96282.28;;;14.43;100.00
11198;BME280;5655;48.744;9.162;2023-04-27T08:32:33;96277.66;;;14.30;100.00
11198;BME280;5655;48.744;9.162;2023-04-27T08:34:59;96279.03;;;14.87;100.00
11198;BME280;5655;48.744;9.162;2023-04-27T08:37:24;96270.56;;;14.85;100.00
11198;BME280;5655;48.744;9.162;2023-04-27T08:39:49;96278.53;;;15.14;100.00
11198;BME280;5655;48.744;9.162;2023-04-27T08:42:15;96272.75;;;15.12;100.00
11198;BME280;5655;48.744;9.162;2023-04-27T08:44:41;96272.13;;;15.52;100.00
11198;BME280;5655;48.744;9.162;2023-04-27T08:47:07;96266.75;;;15.52;100.00
11198;BME280;5655;48.744;9.162;2023-04-27T08:49:33;96271.69;;;15.61;100.00
11198;BME280;5655;48.744;9.162;2023-04-27T08:51:59;96273.97;;;15.62;100.00
11198;BME280;5655;48.744;9.162;2023-04-27T08:54:24;96260.94;;;15.57;99.06
11198;BME280;5655;48.744;9.162;2023-04-27T08:56:51;96261.38;;;15.41;100.00
11198;BME280;5655;48.744;9.162;2023-04-27T08:59:16;96263.78;;;15.84;100.00
11198;BME280;5655;48.744;9.162;2023-04-27T09:01:46;96265.09;;;16.10;93.85
11198;BME280;5655;48.744;9.162;2023-04-27T09:04:15;96264.75;;;15.60;100.00
11198;BME280;5655;48.744;9.162;2023-04-27T09:06:41;96269.72;;;16.13;100.00
11198;BME280;5655;48.744;9.162;2023-04-27T09:09:07;96267.63;;;15.86;91.45
11198;BME280;5655;48.744;9.162;2023-04-27T09:11:37;96263.84;;;16.21;100.00
11198;BME280;5655;48.744;9.162;2023-04-27T09:14:15;96265.41;;;16.56;87.72
11198;BME280;5655;48.744;9.162;2023-04-27T09:16:41;96275.31;;;16.66;86.85
11198;BME280;5655;48.744;9.162;2023-04-27T09:19:07;96269.72;;;16.13;79.08
11198;BME280;5655;48.744;9.162;2023-04-27T09:21:32;96267.72;;;16.17;87.78
11198;BME280;5655;48.744;9.162;2023-04-27T09:24:09;96281.88;;;16.28;94.28
11198;BME280;5655;48.744;9.162;2023-04-27T09:26:36;96276.91;;;16.23;96.66
11198;BME280;5655;48.744;9.162;2023-04-27T09:29:02;96273.00;;;16.27;98.71
11198;BME280;5655;48.744;9.162;2023-04-27T09:31:31;96281.88;;;16.28;100.00
11198;BME280;5655;48.744;9.162;2023-04-27T09:33:57;96273.09;;;16.58;100.00
11198;BME280;5655;48.744;9.162;2023-04-27T09:36:23;96275.50;;;16.49;100.00
11198;BME280;5655;48.744;9.162;2023-04-27T09:38:50;96274.44;;;16.76;98.83
11198;BME280;5655;48.744;9.162;2023-04-27T09:41:16;96277.59;;;16.71;100.00
11198;BME280;5655;48.744;9.162;2023-04-27T09:43:45;96282.34;;;16.19;100.00
11198;BME280;5655;48.744;9.162;2023-04-27T09:46:12;96280.13;;;16.48;100.00
11198;BME280;5655;48.744;9.162;2023-04-27T09:48:38;96280.41;;;16.95;99.94
11198;BME280;5655;48.744;9.162;2023-04-27T09:51:04;96274.06;;;17.05;92.88
11198;BME280;5655;48.744;9.162;2023-04-27T09:53:36;96265.91;;;17.89;88.47
11198;BME280;5655;48.744;9.162;2023-04-27T09:59:04;96271.22;;;18.39;79.37
11198;BME280;5655;48.744;9.162;2023-04-27T10:01:47;96274.34;;;17.41;92.53
11198;BME280;5655;48.744;9.162;2023-04-27T10:05:04;96261.53;;;18.18;78.87
11198;BME280;5655;48.744;9.162;2023-04-27T10:07:34;96261.03;;;18.46;84.62
11198;BME280;5655;48.744;9.162;2023-04-27T10:10:01;96263.91;;;18.79;73.18
11198;BME280;5655;48.744;9.162;2023-04-27T10:12:35;96261.66;;;18.74;72.00
11198;BME280;5655;48.744;9.162;2023-04-27T10:15:15;96267.09;;;18.54;68.76
11198;BME280;5655;48.744;9.162;2023-04-27T10:17:48;96268.44;;;18.85;76.38
11198;BME280;5655;48.744;9.162;2023-04-27T10:20:14;96263.88;;;18.98;73.91
11198;BME280;5655;48.744;9.162;2023-04-27T10:22:48;96268.88;;;19.00;66.02
11198;BME280;5655;48.744;9.162;2023-04-27T10:25:21;96263.59;;;19.48;77.08
11198;BME280;5655;48.744;9.162;2023-04-27T10:30:20;96267.47;;;19.64;71.97
11198;BME280;5655;48.744;9.162;2023-04-27T10:32:56;96267.06;;;19.49;74.06
11198;BME280;5655;48.744;9.162;2023-04-27T10:35:31;96265.19;;;19.10;66.73
11198;BME280;5655;48.744;9.162;2023-04-27T10:38:08;96260.88;;;19.65;67.63
11198;BME280;5655;48.744;9.162;2023-04-27T10:40:35;96257.25;;;19.71;77.83
11198;BME280;5655;48.744;9.162;2023-04-27T10:43:27;96262.38;;;20.14;61.37
11198;BME280;5655;48.744;9.162;2023-04-27T10:45:53;96246.81;;;18.62;65.44
11198;BME280;5655;48.744;9.162;2023-04-27T10:48:19;96249.31;;;19.09;68.49
11198;BME280;5655;48.744;9.162;2023-04-27T10:50:45;96252.50;;;19.23;69.13
11198;BME280;5655;48.744;9.162;2023-04-27T10:53:11;96248.31;;;19.55;68.58
11198;BME280;5655;48.744;9.162;2023-04-27T10:55:37;96256.91;;;19.33;61.03
11198;BME280;5655;48.744;9.162;2023-04-27T10:58:02;96254.84;;;19.21;60.32
11198;BME280;5655;48.744;9.162;2023-04-27T11:00:31;96249.50;;;19.18;59.32
11198;BME280;5655;48.744;9.162;2023-04-27T11:03:12;96247.81;;;19.76;55.78
11198;BME280;5655;48.744;9.162;2023-04-27T11:05:38;96248.06;;;19.29;56.78
11198;BME280;5655;48.744;9.162;2023-04-27T11:08:09;96249.25;;;19.48;53.10
11198;BME280;5655;48.744;9.162;2023-04-27T11:10:45;96243.16;;;20.21;54.88
11198;BME280;5655;48.744;9.162;2023-04-27T11:13:13;96242.47;;;20.33;53.77
11198;BME280;5655;48.744;9.162;2023-04-27T11:16:05;96244.91;;;20.73;51.76
11198;BME280;5655;48.744;9.162;2023-04-27T11:18:31;96238.16;;;20.36;55.80
11198;BME280;5655;48.744;9.162;2023-04-27T11:21:12;96246.09;;;20.72;53.39
11198;BME280;5655;48.744;9.162;2023-04-27T11:23:38;96247.59;;;20.31;50.18
11198;BME280;5655;48.744;9.162;2023-04-27T11:26:19;96248.53;;;20.54;51.33
11198;BME280;5655;48.744;9.162;2023-04-27T11:31:23;96237.53;;;20.28;53.21
11198;BME280;5655;48.744;9.162;2023-04-27T11:33:49;96239.09;;;20.29;51.83
11198;BME280;5655;48.744;9.162;2023-04-27T11:36:21;96238.72;;;20.44;51.86
11198;BME280;5655;48.744;9.162;2023-04-27T11:38:47;96241.84;;;20.71;53.75
11198;BME280;5655;48.744;9.162;2023-04-27T11:41:12;96235.22;;;20.14;56.07
11198;BME280;5655;48.744;9.162;2023-04-27T11:43:42;96251.56;;;20.97;53.03
11198;BME280;5655;48.744;9.162;2023-04-27T11:46:10;96253.94;;;20.70;52.90
11198;BME280;5655;48.744;9.162;2023-04-27T11:48:36;96245.66;;;20.73;54.53
11198;BME280;5655;48.744;9.162;2023-04-27T11:51:02;96250.91;;;20.93;54.66
11198;BME280;5655;48.744;9.162;2023-04-27T11:55:59;96245.41;;;21.09;55.38
11198;BME280;5655;48.744;9.162;2023-04-27T11:58:26;96250.75;;;19.98;56.11
11198;BME280;5655;48.744;9.162;2023-04-27T12:00:52;96251.78;;;19.87;56.69
11198;BME280;5655;48.744;9.162;2023-04-27T12:03:17;96234.84;;;20.12;57.08
11198;BME280;5655;48.744;9.162;2023-04-27T12:05:51;96241.00;;;20.74;56.75
11198;BME280;5655;48.744;9.162;2023-04-27T12:08:17;96230.56;;;20.85;57.23
11198;BME280;5655;48.744;9.162;2023-04-27T12:10:43;96233.63;;;20.87;57.66
11198;BME280;5655;48.744;9.162;2023-04-27T12:13:09;96235.28;;;20.56;56.21
11198;BME280;5655;48.744;9.162;2023-04-27T12:15:35;96225.13;;;20.98;54.47
11198;BME280;5655;48.744;9.162;2023-04-27T12:18:01;96225.78;;;20.89;51.20
11198;BME280;5655;48.744;9.162;2023-04-27T12:20:26;96215.34;;;21.00;49.79
11198;BME280;5655;48.744;9.162;2023-04-27T12:22:53;96219.88;;;20.78;51.00
11198;BME280;5655;48.744;9.162;2023-04-27T12:25:18;96216.41;;;20.77;52.25
11198;BME280;5655;48.744;9.162;2023-04-27T12:27:44;96216.81;;;20.76;53.90
11198;BME280;5655;48.744;9.162;2023-04-27T12:30:12;96217.53;;;20.51;54.94
11198;BME280;5655;48.744;9.162;2023-04-27T12:32:38;96213.38;;;20.18;55.95
11198;BME280;5655;48.744;9.162;2023-04-27T12:35:05;96217.38;;;20.13;56.44
11198;BME280;5655;48.744;9.162;2023-04-27T12:37:31;96219.41;;;20.09;58.23
11198;BME280;5655;48.744;9.162;2023-04-27T12:39:56;96217.31;;;20.01;57.29
11198;BME280;5655;48.744;9.162;2023-04-27T12:42:22;96221.75;;;20.40;56.71
11198;BME280;5655;48.744;9.162;2023-04-27T12:44:49;96211.50;;;20.85;57.92
11198;BME280;5655;48.744;9.162;2023-04-27T12:47:15;96213.75;;;21.28;56.69
11198;BME280;5655;48.744;9.162;2023-04-27T12:49:40;96214.31;;;21.48;54.41
11198;BME280;5655;48.744;9.162;2023-04-27T12:52:06;96208.50;;;21.59;54.47
11198;BME280;5655;48.744;9.162;2023-04-27T12:54:31;96209.25;;;20.26;54.40
11198;BME280;5655;48.744;9.162;2023-04-27T12:56:57;96221.41;;;20.79;53.33
11198;BME280;5655;48.744;9.162;2023-04-27T12:59:22;96208.81;;;19.99;59.38
11198;BME280;5655;48.744;9.162;2023-04-27T13:01:48;96209.53;;;20.31;54.45
11198;BME280;5655;48.744;9.162;2023-04-27T13:04:17;96208.44;;;20.58;58.05
11198;BME280;5655;48.744;9.162;2023-04-27T13:06:44;96205.78;;;20.54;60.67
11198;BME280;5655;48.744;9.162;2023-04-27T13:09:10;96208.75;;;20.60;56.88
11198;BME280;5655;48.744;9.162;2023-04-27T13:11:37;96197.28;;;20.40;57.63